| time (UTC) | temp F | wind direction | speed knots | gust knots | rain 1hr in | rain 24hr in | rain mn in | humidity % | barometer mb |
| 20260505035546 | 46 | 187 | 1.7 | 5.2 | 0.03 | 0.18 | 0.18 | 86 | 1012.4 |
| 20260505035041 | 46 | 205 | 0.9 | 4.3 | 0.06 | 0.18 | 0.18 | 86 | 1012.4 |
| 20260505034613 | 46 | 0 | 0.9 | 6.1 | 0.08 | 0.18 | 0.18 | 87 | 1012.3 |
| 20260505034043 | 46 | 0 | 0.9 | 6.1 | 0.10 | 0.18 | 0.18 | 87 | 1012.4 |
| 20260505033543 | 46 | 180 | 0.9 | 4.3 | 0.13 | 0.18 | 0.18 | 88 | 1012.4 |
| 20260505033052 | 46 | 194 | 0.9 | 4.3 | 0.15 | 0.18 | 0.18 | 88 | 1012.5 |
| 20260505032543 | 47 | 217 | 0.9 | 5.2 | 0.16 | 0.18 | 0.18 | 87 | 1012.6 |
| 20260505032043 | 47 | 0 | 0.9 | 5.2 | 0.17 | 0.18 | 0.18 | 88 | 1012.7 |
| 20260505031555 | 47 | 209 | 0.0 | 2.6 | 0.17 | 0.18 | 0.18 | 88 | 1012.7 |
| 20260505031042 | 47 | 0 | 0.0 | 2.6 | 0.18 | 0.18 | 0.18 | 87 | 1012.5 |
| 20260505030542 | 48 | 0 | 0.0 | 3.5 | 0.18 | 0.18 | 0.18 | 87 | 1012.5 |
| 20260505030049 | 48 | 197 | 0.0 | 3.5 | 0.17 | 0.17 | 0.17 | 86 | 1012.5 |
| 20260505025542 | 49 | 217 | 0.9 | 4.3 | 0.15 | 0.15 | 0.15 | 85 | 1012.4 |
| 20260505025042 | 49 | 191 | 1.7 | 4.3 | 0.12 | 0.12 | 0.12 | 84 | 1012.3 |
| 20260505024551 | 50 | 0 | 0.9 | 3.5 | 0.10 | 0.10 | 0.10 | 84 | 1012.4 |
| 20260505024042 | 50 | 0 | 0.0 | 3.5 | 0.08 | 0.08 | 0.08 | 83 | 1012.3 |
| 20260505023542 | 51 | 0 | 0.0 | 3.5 | 0.05 | 0.05 | 0.05 | 82 | 1012.2 |
| 20260505023050 | 51 | 284 | 0.0 | 1.7 | 0.03 | 0.03 | 0.03 | 81 | 1012.2 |
| 20260505022546 | 51 | 0 | 0.0 | 1.7 | 0.02 | 0.02 | 0.02 | 80 | 1012.0 |
| 20260505022042 | 51 | 0 | 0.0 | 2.6 | 0.01 | 0.01 | 0.01 | 78 | 1011.8 |
| 20260505021549 | 52 | 0 | 0.0 | 2.6 | 0.01 | 0.01 | 0.01 | 76 | 1011.6 |
| 20260505021042 | 52 | 212 | 0.0 | 2.6 | 0.00 | 0.00 | 0.00 | 74 | 1011.5 |
| 20260505020541 | 52 | 0 | 0.0 | 1.7 | 0.00 | 0.00 | 0.00 | 73 | 1011.5 |
| 20260505020047 | 52 | 0 | 0.0 | 1.7 | 0.00 | 0.00 | 0.00 | 71 | 1011.5 |
| 20260505015541 | 52 | 293 | 0.0 | 1.7 | 0.00 | 0.00 | 0.00 | 70 | 1011.5 |
| 20260505015041 | 52 | 0 | 0.0 | 4.3 | 0.00 | 0.00 | 0.00 | 69 | 1011.5 |
| 20260505014546 | 53 | 335 | 0.0 | 4.3 | 0.00 | 0.00 | 0.00 | 69 | 1011.4 |
| 20260505014041 | 53 | 0 | 0.9 | 4.3 | 0.00 | 0.00 | 0.00 | 67 | 1011.3 |
| 20260505013542 | 53 | 335 | 0.9 | 7.0 | 0.00 | 0.00 | 0.00 | 67 | 1011.2 |
| 20260505013048 | 53 | 328 | 1.7 | 7.0 | 0.00 | 0.00 | 0.00 | 67 | 1011.1 |
| 20260505012544 | 54 | 331 | 1.7 | 7.0 | 0.00 | 0.00 | 0.00 | 65 | 1011.1 |
| 20260505012042 | 54 | 303 | 1.7 | 9.6 | 0.00 | 0.00 | 0.00 | 64 | 1011.2 |
| 20260505011607 | 55 | 9 | 2.6 | 11.3 | 0.00 | 0.00 | 0.00 | 64 | 1011.1 |
| 20260505011042 | 55 | 316 | 3.5 | 12.2 | 0.00 | 0.00 | 0.00 | 62 | 1011.1 |
| 20260505010541 | 57 | 308 | 5.2 | 12.2 | 0.00 | 0.00 | 0.00 | 58 | 1011.1 |
| 20260505010051 | 58 | 311 | 2.6 | 8.7 | 0.00 | 0.00 | 0.00 | 56 | 1011.0 |
| 20260505005542 | 58 | 341 | 1.7 | 4.3 | 0.00 | 0.00 | 0.00 | 55 | 1010.9 |
| 20260505005042 | 58 | 328 | 0.9 | 4.3 | 0.00 | 0.00 | 0.00 | 54 | 1010.8 |
| 20260505004548 | 58 | 339 | 0.0 | 3.5 | 0.00 | 0.00 | 0.00 | 54 | 1010.8 |
| 20260505004041 | 58 | 0 | 0.9 | 3.5 | 0.00 | 0.00 | 0.00 | 54 | 1010.7 |
| 20260505003541 | 58 | 338 | 0.0 | 3.5 | 0.00 | 0.00 | 0.00 | 56 | 1010.7 |
| 20260505003053 | 58 | 319 | 0.0 | 6.1 | 0.00 | 0.00 | 0.00 | 57 | 1010.8 |
| 20260505002541 | 58 | 0 | 0.9 | 6.1 | 0.00 | 0.00 | 0.00 | 56 | 1010.8 |
| 20260505002041 | 58 | 281 | 0.9 | 6.1 | 0.00 | 0.00 | 0.00 | 56 | 1010.8 |
| 20260505001603 | 58 | 0 | 0.9 | 5.2 | 0.00 | 0.00 | 0.00 | 55 | 1010.7 |
| 20260505001040 | 58 | 269 | 0.9 | 5.2 | 0.00 | 0.00 | 0.00 | 56 | 1010.6 |
| 20260505000541 | 58 | 296 | 0.0 | 6.1 | 0.00 | 0.00 | 0.00 | 57 | 1010.7 |
| 20260505000105 | 58 | 0 | 0.9 | 6.1 | 0.00 | 0.00 | 0.00 | 60 | 1010.6 |
| 20260504235542 | 58 | 305 | 0.0 | 2.6 | 0.00 | 0.00 | 0.00 | 59 | 1010.5 |
| 20260504235043 | 57 | 0 | 0.0 | 3.5 | 0.00 | 0.00 | 0.00 | 59 | 1010.4 |
| 20260504234550 | 57 | 333 | 0.0 | 4.3 | 0.00 | 0.00 | 0.00 | 58 | 1010.6 |
| 20260504234042 | 57 | 0 | 0.9 | 4.3 | 0.00 | 0.00 | 0.00 | 58 | 1010.6 |
| 20260504233542 | 58 | 340 | 0.0 | 3.5 | 0.00 | 0.00 | 0.00 | 57 | 1010.6 |
| 20260504233103 | 58 | 0 | 0.0 | 3.5 | 0.00 | 0.00 | 0.00 | 58 | 1010.6 |
| 20260504232541 | 57 | 360 | 0.9 | 3.5 | 0.00 | 0.00 | 0.00 | 57 | 1010.4 |
| 20260504232041 | 57 | 348 | 0.9 | 3.5 | 0.00 | 0.00 | 0.00 | 60 | 1010.5 |
| 20260504231546 | 57 | 0 | 0.0 | 3.5 | 0.00 | 0.00 | 0.00 | 60 | 1010.4 |
| 20260504231041 | 57 | 0 | 1.7 | 3.5 | 0.00 | 0.00 | 0.00 | 58 | 1010.3 |
| 20260504230541 | 57 | 60 | 0.0 | 1.7 | 0.00 | 0.00 | 0.00 | 62 | 1010.3 |
| 20260504230050 | 57 | 0 | 0.0 | 2.6 | 0.00 | 0.00 | 0.00 | 63 | 1010.4 |
| 20260504225542 | 57 | 0 | 0.0 | 5.2 | 0.00 | 0.00 | 0.00 | 62 | 1010.4 |
| 20260504225041 | 58 | 212 | 0.0 | 7.8 | 0.00 | 0.00 | 0.00 | 61 | 1010.4 |
| 20260504224546 | 58 | 195 | 1.7 | 11.3 | 0.00 | 0.00 | 0.00 | 54 | 1010.6 |
| 20260504224041 | 60 | 311 | 2.6 | 11.3 | 0.00 | 0.00 | 0.00 | 52 | 1010.7 |
| 20260504223542 | 60 | 51 | 0.9 | 4.3 | 0.00 | 0.00 | 0.00 | 50 | 1010.8 |
| 20260504223049 | 60 | 257 | 0.9 | 4.3 | 0.00 | 0.00 | 0.00 | 44 | 1010.7 |
| 20260504222544 | 61 | 261 | 0.9 | 4.3 | 0.00 | 0.00 | 0.00 | 45 | 1010.8 |
| 20260504222042 | 61 | 207 | 0.0 | 2.6 | 0.00 | 0.00 | 0.00 | 46 | 1010.8 |
| 20260504221546 | 61 | 0 | 0.0 | 1.7 | 0.00 | 0.00 | 0.00 | 45 | 1010.5 |
| 20260504221042 | 61 | 0 | 0.0 | 2.6 | 0.00 | 0.00 | 0.00 | 45 | 1010.3 |
| 20260504220541 | 62 | 342 | 0.0 | 4.3 | 0.00 | 0.00 | 0.00 | 45 | 1010.1 |
| 20260504220101 | 62 | 9 | 0.9 | 8.7 | 0.00 | 0.00 | 0.00 | 45 | 1009.7 |
| 20260504215543 | 62 | 33 | 1.7 | 8.7 | 0.00 | 0.00 | 0.00 | 46 | 1009.5 |
| 20260504215042 | 62 | 351 | 1.7 | 8.7 | 0.00 | 0.00 | 0.00 | 45 | 1009.3 |
| 20260504214550 | 62 | 301 | 2.6 | 13.9 | 0.00 | 0.00 | 0.00 | 45 | 1009.2 |
| 20260504214043 | 62 | 274 | 2.6 | 13.9 | 0.00 | 0.00 | 0.00 | 45 | 1009.3 |
| 20260504213544 | 62 | 342 | 7.0 | 13.9 | 0.00 | 0.00 | 0.00 | 43 | 1009.5 |
| 20260504213050 | 63 | 320 | 4.3 | 12.2 | 0.00 | 0.00 | 0.00 | 41 | 1009.6 |
| 20260504212544 | 63 | 319 | 4.3 | 18.2 | 0.00 | 0.00 | 0.00 | 41 | 1009.5 |
| 20260504212043 | 64 | 340 | 5.2 | 18.2 | 0.00 | 0.00 | 0.00 | 39 | 1009.4 |
| 20260504211546 | 65 | 351 | 7.0 | 19.1 | 0.00 | 0.00 | 0.00 | 39 | 1009.4 |
| 20260504211043 | 65 | 281 | 7.0 | 19.1 | 0.00 | 0.00 | 0.00 | 36 | 1009.4 |
| 20260504210543 | 66 | 347 | 7.8 | 19.1 | 0.00 | 0.00 | 0.00 | 37 | 1009.4 |
| 20260504210050 | 65 | 325 | 5.2 | 16.5 | 0.00 | 0.00 | 0.00 | 39 | 1009.4 |
| 20260504205544 | 65 | 329 | 6.1 | 14.8 | 0.00 | 0.00 | 0.00 | 38 | 1009.5 |
| 20260504205044 | 66 | 325 | 5.2 | 19.1 | 0.00 | 0.00 | 0.00 | 36 | 1009.5 |
| 20260504204557 | 68 | 24 | 8.7 | 19.1 | 0.00 | 0.00 | 0.00 | 31 | 1009.7 |
| 20260504204044 | 69 | 360 | 4.3 | 9.6 | 0.00 | 0.00 | 0.00 | 30 | 1009.7 |
| 20260504203543 | 69 | 360 | 0.9 | 7.8 | 0.00 | 0.00 | 0.00 | 29 | 1009.0 |
| 20260504203058 | 68 | 360 | 1.7 | 8.7 | 0.00 | 0.00 | 0.00 | 30 | 1008.9 |
| 20260504202543 | 68 | 360 | 2.6 | 9.6 | 0.00 | 0.00 | 0.00 | 31 | 1008.9 |
| 20260504202046 | 68 | 360 | 4.3 | 9.6 | 0.00 | 0.00 | 0.00 | 31 | 1008.9 |
| 20260504201553 | 68 | 360 | 0.9 | 14.8 | 0.00 | 0.00 | 0.00 | 29 | 1008.8 |
| 20260504201044 | 68 | 360 | 1.7 | 14.8 | 0.00 | 0.00 | 0.00 | 29 | 1008.8 |
| 20260504200543 | 68 | 360 | 5.2 | 14.8 | 0.00 | 0.00 | 0.00 | 28 | 1008.7 |
| 20260504200101 | 69 | 360 | 3.5 | 15.6 | 0.00 | 0.00 | 0.00 | 28 | 1008.8 |
| 20260504195543 | 69 | 360 | 3.5 | 15.6 | 0.00 | 0.00 | 0.00 | 29 | 1008.7 |
| 20260504195043 | 69 | 360 | 4.3 | 15.6 | 0.00 | 0.00 | 0.00 | 27 | 1008.7 |
| 20260504194604 | 70 | 360 | 2.6 | 15.6 | 0.00 | 0.00 | 0.00 | 27 | 1008.6 |
| 20260504194043 | 70 | 360 | 6.1 | 15.6 | 0.00 | 0.00 | 0.00 | 24 | 1008.8 |
| 20260504193543 | 72 | 229 | 4.3 | 13.0 | 0.00 | 0.00 | 0.00 | 23 | 1008.5 |
| 20260504193102 | 72 | 198 | 1.7 | 7.8 | 0.00 | 0.00 | 0.00 | 25 | 1008.5 |
| 20260504192544 | 72 | 277 | 1.7 | 6.1 | 0.00 | 0.00 | 0.00 | 25 | 1008.5 |
| 20260504192043 | 72 | 232 | 0.0 | 7.8 | 0.00 | 0.00 | 0.00 | 25 | 1008.3 |
| 20260504191608 | 72 | 0 | 1.7 | 7.8 | 0.00 | 0.00 | 0.00 | 25 | 1008.3 |
| 20260504191044 | 72 | 209 | 1.7 | 5.2 | 0.00 | 0.00 | 0.00 | 24 | 1008.3 |
| 20260504190545 | 71 | 0 | 0.0 | 2.6 | 0.00 | 0.00 | 0.00 | 25 | 1008.3 |
| 20260504190053 | 71 | 0 | 0.0 | 2.6 | 0.00 | 0.00 | 0.00 | 24 | 1008.4 |
| 20260504185615 | 71 | 227 | 0.9 | 3.5 | 0.00 | 0.00 | 0.00 | 24 | 1008.5 |
| 20260504185043 | 70 | 167 | 0.9 | 3.5 | 0.00 | 0.00 | 0.00 | 26 | 1008.4 |
| 20260504184551 | 70 | 244 | 0.9 | 7.0 | 0.00 | 0.00 | 0.00 | 25 | 1008.4 |
| 20260504184043 | 70 | 206 | 1.7 | 7.8 | 0.00 | 0.00 | 0.00 | 24 | 1008.6 |
| 20260504183542 | 70 | 254 | 3.5 | 7.8 | 0.00 | 0.00 | 0.00 | 25 | 1008.7 |
| 20260504183055 | 70 | 223 | 1.7 | 9.6 | 0.00 | 0.00 | 0.00 | 26 | 1008.8 |
| 20260504182541 | 70 | 236 | 2.6 | 9.6 | 0.00 | 0.00 | 0.00 | 25 | 1008.9 |
| 20260504182041 | 70 | 284 | 3.5 | 8.7 | 0.00 | 0.00 | 0.00 | 27 | 1009.0 |
| 20260504181601 | 70 | 257 | 2.6 | 12.2 | 0.00 | 0.00 | 0.00 | 26 | 1009.0 |
| 20260504181041 | 69 | 188 | 1.7 | 12.2 | 0.00 | 0.00 | 0.00 | 27 | 1009.2 |
| 20260504180540 | 69 | 219 | 3.5 | 11.3 | 0.00 | 0.00 | 0.00 | 28 | 1009.2 |
| 20260504180056 | 68 | 232 | 2.6 | 13.9 | 0.00 | 0.00 | 0.00 | 28 | 1009.3 |
| 20260504175543 | 68 | 223 | 6.1 | 15.6 | 0.00 | 0.00 | 0.00 | 28 | 1009.4 |
| 20260504175042 | 68 | 225 | 5.2 | 15.6 | 0.00 | 0.00 | 0.00 | 29 | 1009.5 |
| 20260504174551 | 68 | 263 | 4.3 | 15.6 | 0.00 | 0.00 | 0.00 | 29 | 1009.7 |
| 20260504174041 | 68 | 232 | 4.3 | 14.8 | 0.00 | 0.00 | 0.00 | 29 | 1009.7 |
| 20260504173541 | 67 | 213 | 3.5 | 13.9 | 0.00 | 0.00 | 0.00 | 29 | 1009.9 |
| 20260504173054 | 67 | 255 | 4.3 | 13.9 | 0.00 | 0.00 | 0.00 | 30 | 1009.9 |
| 20260504172545 | 66 | 17 | 4.3 | 11.3 | 0.00 | 0.00 | 0.00 | 31 | 1010.0 |
| 20260504172041 | 65 | 216 | 1.7 | 11.3 | 0.00 | 0.00 | 0.00 | 32 | 1010.2 |
| 20260504171558 | 65 | 242 | 4.3 | 15.6 | 0.00 | 0.00 | 0.00 | 32 | 1010.3 |
| 20260504171041 | 64 | 237 | 5.2 | 16.5 | 0.00 | 0.00 | 0.00 | 31 | 1010.3 |
| 20260504170541 | 64 | 241 | 4.3 | 16.5 | 0.00 | 0.00 | 0.00 | 31 | 1010.3 |
| 20260504151041 | 62 | 207 | 2.6 | 12.2 | 0.00 | 0.00 | 0.00 | 32 | 1010.3 |
| 20260504150543 | 62 | 246 | 2.6 | 12.2 | 0.00 | 0.00 | 0.00 | 32 | 1010.4 |
| 20260504141040 | 51 | 0 | 0.0 | 2.6 | 0.00 | 0.00 | 0.00 | 47 | 1010.7 |
| 20260504140541 | 50 | 0 | 0.0 | 0.9 | 0.00 | 0.00 | 0.00 | 51 | 1010.8 |
| 20260504130542 | 45 | 0 | 0.0 | 2.6 | 0.00 | 0.00 | 0.00 | 56 | 1010.4 |
| 20260504110547 | 45 | 0 | 0.0 | 1.7 | 0.00 | 0.00 | 0.00 | 51 | 1010.3 |
| 20260504100545 | 44 | 0 | 0.0 | 1.7 | 0.00 | 0.00 | 0.00 | 49 | 1010.6 |
| 20260504090104 | 44 | 0 | 0.0 | 0.9 | 0.00 | 0.00 | 0.00 | 52 | 1011.0 |
| 20260504081553 | 46 | 0 | 0.0 | 0.9 | 0.00 | 0.00 | 0.00 | 47 | 1011.3 |
| 20260504081041 | 46 | 0 | 0.0 | 0.9 | 0.00 | 0.00 | 0.00 | 47 | 1011.4 |
| 20260504080541 | 47 | 0 | 0.0 | 1.7 | 0.00 | 0.00 | 0.00 | 47 | 1011.4 |
| 20260504050542 | 60 | 17 | 1.7 | 5.2 | 0.00 | 0.00 | 0.00 | 30 | 1012.4 |
| 20260504045543 | 61 | 175 | 0.0 | 4.3 | 0.00 | 0.00 | 0.00 | 30 | 1011.9 |
| 20260504045040 | 61 | 0 | 0.9 | 5.2 | 0.00 | 0.00 | 0.00 | 30 | 1011.9 |
| 20260504044553 | 61 | 0 | 0.9 | 5.2 | 0.00 | 0.00 | 0.00 | 29 | 1012.0 |
| 20260504044042 | 62 | 0 | 0.9 | 4.3 | 0.00 | 0.00 | 0.00 | 29 | 1012.1 |
| 20260504043541 | 62 | 190 | 0.0 | 4.3 | 0.00 | 0.00 | 0.00 | 29 | 1012.0 |
| 20260504043051 | 62 | 177 | 0.9 | 4.3 | 0.00 | 0.00 | 0.00 | 29 | 1012.1 |
| 20260504042544 | 63 | 0 | 0.0 | 7.8 | 0.00 | 0.00 | 0.00 | 28 | 1012.1 |
| 20260504042042 | 63 | 209 | 0.9 | 7.8 | 0.00 | 0.00 | 0.00 | 28 | 1012.1 |
| 20260504041553 | 63 | 209 | 1.7 | 7.0 | 0.00 | 0.00 | 0.00 | 28 | 1012.1 |
| 20260504041041 | 63 | 214 | 1.7 | 6.1 | 0.00 | 0.00 | 0.00 | 28 | 1012.2 |
| 20260504040541 | 63 | 198 | 0.9 | 9.6 | 0.00 | 0.00 | 0.00 | 28 | 1012.2 |
| 20260504040109 | 63 | 194 | 1.7 | 9.6 | 0.00 | 0.00 | 0.00 | 28 | 1012.2 |